Time;durP1;ratioP1;P1;durP2;ratioP2;P2;SDS_P1;SDS_P2;PMS_P1;PMS_P2;Temp;Humidity;BMP_temperature;BMP_pressure;BME280_temperature;BME280_humidity;BME280_pressure;Samples;Min_cycle;Max_cycle;Signal;HPM_P1;HPM_P2
2021/11/25 16:52:12;;;;;;;44.53;25.03;;;5.80;98.30;;;;;;449915;23;20812;-81
2021/11/25 16:54:16;;;;;;;46.93;27.00;;;5.90;98.30;;;;;;4049518;29;20934;-81
2021/11/25 16:56:19;;;;;;;47.23;24.00;;;5.80;98.30;;;;;;4051323;29;20570;-81
2021/11/25 16:58:25;;;;;;;40.20;23.90;;;5.80;98.30;;;;;;4040553;29;20497;-81
2021/11/25 17:00:28;;;;;;;37.00;21.43;;;5.80;98.30;;;;;;4044521;29;20524;-81
2021/11/25 17:02:31;;;;;;;37.13;21.10;;;5.80;98.30;;;;;;4037423;29;20470;-81
2021/11/25 17:04:34;;;;;;;37.93;21.00;;;5.80;98.30;;;;;;4038005;29;20493;-81
2021/11/25 17:06:38;;;;;;;34.07;19.53;;;5.70;98.30;;;;;;4048244;29;20471;-81
2021/11/25 17:08:42;;;;;;;30.60;19.00;;;5.70;98.30;;;;;;4036156;29;20991;-81
2021/11/25 17:10:47;;;;;;;33.83;18.73;;;5.70;98.30;;;;;;4049827;29;20485;-80
2021/11/25 17:12:50;;;;;;;28.40;17.60;;;5.70;98.30;;;;;;4044783;29;20477;-80
2021/11/25 17:14:54;;;;;;;27.40;16.10;;;5.70;98.30;;;;;;4041233;29;20841;-81
2021/11/25 17:16:57;;;;;;;28.87;16.97;;;5.70;98.30;;;;;;4040883;29;20507;-81
2021/11/25 17:19:01;;;;;;;25.47;15.80;;;5.70;98.30;;;;;;4048660;29;20620;-81
2021/11/25 17:21:06;;;;;;;32.03;15.30;;;5.70;98.30;;;;;;4048850;29;20436;-81
2021/11/25 17:23:09;;;;;;;26.57;15.43;;;5.70;98.30;;;;;;4041104;29;20537;-81
2021/11/25 17:25:15;;;;;;;25.10;13.57;;;5.60;98.30;;;;;;4040944;29;20559;-81
2021/11/25 17:27:18;;;;;;;26.20;14.53;;;5.70;98.30;;;;;;4047433;29;20692;-81
2021/11/25 17:29:21;;;;;;;25.80;13.57;;;5.60;98.30;;;;;;4026276;29;20517;-81
2021/11/25 17:31:25;;;;;;;26.00;13.80;;;5.60;98.30;;;;;;4042727;29;20459;-81
2021/11/25 17:33:30;;;;;;;21.87;11.77;;;5.60;98.30;;;;;;4041062;29;20905;-81
2021/11/25 17:35:39;;;;;;;18.37;11.17;;;5.60;98.30;;;;;;4039408;29;20479;-81
2021/11/25 17:37:43;;;;;;;16.90;9.60;;;5.60;98.30;;;;;;4046802;29;20489;-81
2021/11/25 17:39:46;;;;;;;15.47;9.60;;;5.60;98.30;;;;;;4032125;29;20542;-81
2021/11/25 17:41:51;;;;;;;21.63;9.67;;;5.60;98.30;;;;;;4046619;29;20479;-81
2021/11/25 17:43:54;;;;;;;21.13;9.50;;;5.60;98.30;;;;;;4043778;29;20496;-81
2021/11/25 17:45:57;;;;;;;17.70;8.40;;;5.60;98.30;;;;;;4042073;29;20529;-81
2021/11/25 17:48:01;;;;;;;13.20;8.43;;;5.60;98.30;;;;;;4040965;29;20500;-82
2021/11/25 17:50:05;;;;;;;14.67;9.60;;;5.60;98.30;;;;;;4035622;29;20841;-81
2021/11/25 17:52:08;;;;;;;13.30;7.73;;;5.60;98.30;;;;;;4036297;29;20475;-81
2021/11/25 17:54:12;;;;;;;11.20;7.33;;;5.60;98.30;;;;;;4031015;29;20471;-81
2021/11/25 17:56:15;;;;;;;13.50;7.67;;;5.60;98.30;;;;;;4029972;29;20569;-81
2021/11/25 17:58:20;;;;;;;15.33;6.80;;;5.60;98.30;;;;;;4040115;29;20513;-81
2021/11/25 18:00:24;;;;;;;16.23;7.47;;;5.60;98.30;;;;;;4040326;29;20480;-81
2021/11/25 18:02:27;;;;;;;17.50;9.70;;;5.50;98.30;;;;;;4039606;29;20452;-80
2021/11/25 18:04:30;;;;;;;16.63;8.87;;;5.50;98.30;;;;;;4041827;29;20604;-80
2021/11/25 18:06:33;;;;;;;12.73;7.67;;;5.50;98.30;;;;;;4039308;29;20505;-81
2021/11/25 18:08:36;;;;;;;13.17;9.30;;;5.50;98.30;;;;;;4042003;29;20580;-81
2021/11/25 18:10:42;;;;;;;21.30;10.40;;;5.50;98.30;;;;;;4036623;29;20445;-81
2021/11/25 18:12:47;;;;;;;19.33;10.10;;;5.50;98.30;;;;;;4050100;29;20447;-81
2021/11/25 18:14:55;;;;;;;15.93;9.00;;;5.50;98.30;;;;;;4034667;29;20459;-80
2021/11/25 18:16:58;;;;;;;22.23;10.40;;;5.40;98.30;;;;;;4037240;29;20509;-80
2021/11/25 18:19:04;;;;;;;24.87;14.43;;;5.50;98.30;;;;;;4041958;29;20484;-81
2021/11/25 18:21:08;;;;;;;17.60;9.23;;;5.50;98.30;;;;;;4042206;29;20486;-81
2021/11/25 18:23:11;;;;;;;17.60;9.40;;;5.40;98.30;;;;;;4037209;29;20486;-81
2021/11/25 18:25:15;;;;;;;17.50;9.90;;;5.40;98.30;;;;;;4046941;29;20490;-81
2021/11/25 18:27:19;;;;;;;22.53;11.17;;;5.40;98.30;;;;;;4057651;29;20523;-80
2021/11/25 18:29:22;;;;;;;17.00;10.17;;;5.40;98.30;;;;;;4053679;29;20477;-81
2021/11/25 18:31:27;;;;;;;16.30;10.20;;;5.40;98.30;;;;;;4050935;29;20458;-81
2021/11/25 18:33:30;;;;;;;16.60;9.23;;;5.30;98.30;;;;;;4038749;29;20482;-80
2021/11/25 18:35:33;;;;;;;20.30;9.30;;;5.30;98.30;;;;;;4034702;29;20458;-80
2021/11/25 18:37:36;;;;;;;20.63;10.47;;;5.30;98.30;;;;;;4040055;29;20497;-80
2021/11/25 18:39:40;;;;;;;15.17;9.93;;;5.30;98.30;;;;;;4053572;29;20545;-80
2021/11/25 18:41:44;;;;;;;17.20;11.00;;;5.30;98.30;;;;;;4054596;29;20471;-80
2021/11/25 18:43:49;;;;;;;13.67;8.73;;;5.30;98.30;;;;;;4043855;29;20439;-79
2021/11/25 18:45:52;;;;;;;13.47;7.57;;;5.30;98.30;;;;;;4048214;29;20480;-80
2021/11/25 18:47:57;;;;;;;13.27;7.30;;;5.30;98.30;;;;;;4045132;29;20897;-80
2021/11/25 18:50:04;;;;;;;14.13;8.10;;;5.30;98.30;;;;;;4044802;29;21166;-80
2021/11/25 18:52:08;;;;;;;16.43;7.57;;;5.30;98.30;;;;;;4047928;29;20573;-81
2021/11/25 18:54:11;;;;;;;13.40;7.17;;;5.30;98.30;;;;;;4040291;29;20484;-80
2021/11/25 18:56:15;;;;;;;11.67;5.93;;;5.30;98.30;;;;;;4037652;29;20555;-80
2021/11/25 18:58:20;;;;;;;7.17;4.63;;;5.40;98.30;;;;;;4039978;29;20492;-81
2021/11/25 19:00:23;;;;;;;10.00;5.37;;;5.40;98.30;;;;;;4048829;29;20432;-80
2021/11/25 19:02:26;;;;;;;14.80;5.60;;;5.50;98.30;;;;;;4051009;29;20572;-80
2021/11/25 19:04:31;;;;;;;13.70;5.50;;;5.50;98.30;;;;;;4051339;29;20528;-80
2021/11/25 19:06:34;;;;;;;12.40;5.77;;;5.50;98.30;;;;;;4055057;29;20496;-80
2021/11/25 19:08:37;;;;;;;15.80;6.67;;;5.50;98.30;;;;;;4056521;29;20496;-81
2021/11/25 19:10:40;;;;;;;16.57;7.47;;;5.50;98.30;;;;;;4046106;29;20505;-81
2021/11/25 19:12:43;;;;;;;13.37;7.13;;;5.40;98.30;;;;;;4039267;29;20469;-81
2021/11/25 19:14:49;;;;;;;17.57;8.20;;;5.40;98.30;;;;;;4038811;29;20468;-80
2021/11/25 19:16:53;;;;;;;13.10;6.90;;;5.40;98.30;;;;;;4039110;29;20453;-80
2021/11/25 19:18:56;;;;;;;15.77;7.13;;;5.30;98.30;;;;;;4037982;29;20521;-81
2021/11/25 19:21:01;;;;;;;10.17;7.03;;;5.30;98.30;;;;;;4039886;29;20444;-81
2021/11/25 19:23:04;;;;;;;12.73;6.50;;;5.30;98.30;;;;;;4039683;29;20452;-80
2021/11/25 19:25:08;;;;;;;11.90;6.93;;;5.30;98.30;;;;;;4038561;29;20486;-80
2021/11/25 19:27:11;;;;;;;16.20;7.17;;;5.20;98.30;;;;;;4028674;29;20480;-81
2021/11/25 19:29:14;;;;;;;13.70;8.00;;;5.20;98.30;;;;;;4037950;29;20474;-81
2021/11/25 19:31:18;;;;;;;13.70;7.70;;;5.20;98.30;;;;;;4038721;29;20486;-81
2021/11/25 19:33:21;;;;;;;13.07;7.93;;;5.20;98.30;;;;;;4038188;29;20484;-81
2021/11/25 19:35:24;;;;;;;13.90;7.43;;;5.20;98.30;;;;;;4038668;29;20473;-80
2021/11/25 19:37:28;;;;;;;13.73;6.20;;;5.20;98.30;;;;;;4038997;29;20472;-80
2021/11/25 19:39:32;;;;;;;11.60;7.23;;;5.20;98.30;;;;;;4044433;29;20481;-80
2021/11/25 19:41:35;;;;;;;12.30;6.67;;;5.20;98.30;;;;;;4034739;29;20498;-80
2021/11/25 19:43:38;;;;;;;14.03;9.10;;;5.20;98.30;;;;;;4033685;29;20450;-80
2021/11/25 19:45:41;;;;;;;13.40;6.67;;;5.20;98.30;;;;;;4041331;29;20580;-80
2021/11/25 19:47:45;;;;;;;11.63;6.03;;;5.10;98.30;;;;;;4033100;29;20545;-80
2021/11/25 19:49:48;;;;;;;9.10;6.50;;;5.10;98.30;;;;;;4035450;29;20557;-80
2021/11/25 19:51:51;;;;;;;13.73;7.03;;;5.10;98.30;;;;;;4033048;29;20585;-80
2021/11/25 19:53:56;;;;;;;15.20;8.00;;;5.10;98.30;;;;;;4040041;29;20447;-80
2021/11/25 19:55:59;;;;;;;13.93;6.30;;;5.10;98.30;;;;;;4033184;29;20950;-80
2021/11/25 19:58:03;;;;;;;10.77;5.90;;;5.10;98.30;;;;;;4034924;29;20495;-79
2021/11/25 20:00:09;;;;;;;10.70;5.60;;;5.10;98.30;;;;;;4034568;29;20577;-80
2021/11/25 20:02:13;;;;;;;10.23;6.37;;;5.10;98.30;;;;;;4037710;29;20480;-79
2021/11/25 20:04:20;;;;;;;12.50;6.43;;;5.10;98.30;;;;;;4037289;29;20559;-80
2021/11/25 20:06:24;;;;;;;11.40;6.00;;;5.00;98.30;;;;;;4036138;29;20490;-80
2021/11/25 20:08:31;;;;;;;10.77;6.50;;;5.00;98.30;;;;;;4042015;29;20525;-80
2021/11/25 20:10:40;;;;;;;12.13;5.30;;;5.00;98.30;;;;;;4040112;29;20462;-80
2021/11/25 20:12:46;;;;;;;9.37;6.20;;;5.00;98.30;;;;;;4035078;29;20519;-79
2021/11/25 20:14:50;;;;;;;13.20;6.10;;;4.90;98.30;;;;;;4038219;29;20444;-80
2021/11/25 20:16:56;;;;;;;12.00;5.60;;;4.90;98.30;;;;;;4038179;29;20541;-80
2021/11/25 20:19:02;;;;;;;11.53;5.10;;;4.90;98.30;;;;;;4044351;29;20505;-80
2021/11/25 20:21:05;;;;;;;14.57;6.40;;;4.90;98.30;;;;;;4037620;29;20883;-81
2021/11/25 20:23:09;;;;;;;9.23;6.37;;;4.90;98.30;;;;;;4036465;29;20474;-80
2021/11/25 20:25:38;;;;;;;13.00;5.00;;;4.90;98.30;;;;;;4025558;29;20597;-80
2021/11/25 20:27:50;;;;;;;12.93;5.17;;;4.90;98.30;;;;;;4030370;29;20509;-80
2021/11/25 20:29:56;;;;;;;5.93;3.83;;;4.90;98.30;;;;;;4035688;29;20446;-80
2021/11/25 20:32:11;;;;;;;11.97;5.20;;;5.00;98.30;;;;;;4036293;29;20481;-79
2021/11/25 20:34:16;;;;;;;7.23;4.97;;;4.90;98.30;;;;;;4036682;29;20541;-79
2021/11/25 20:36:23;;;;;;;8.33;4.87;;;4.90;98.30;;;;;;4036776;29;20481;-80
2021/11/25 20:38:26;;;;;;;8.77;5.80;;;5.00;98.30;;;;;;4035363;29;20517;-79
2021/11/25 20:40:29;;;;;;;9.40;4.90;;;4.90;98.30;;;;;;4037865;29;20474;-78
2021/11/25 20:42:34;;;;;;;7.93;4.70;;;4.90;98.30;;;;;;4038253;29;20825;-80
2021/11/25 20:44:39;;;;;;;12.67;5.17;;;4.90;98.30;;;;;;4037835;29;20566;-79
2021/11/25 20:46:44;;;;;;;15.47;5.20;;;4.90;98.30;;;;;;4037486;29;20842;-80
2021/11/25 20:48:49;;;;;;;10.63;4.20;;;4.90;98.30;;;;;;4036137;29;20497;-79
2021/11/25 20:50:55;;;;;;;6.63;4.60;;;4.90;98.30;;;;;;4034961;29;21001;-80
2021/11/25 20:53:00;;;;;;;7.77;4.30;;;4.90;98.30;;;;;;4031745;29;20473;-80
2021/11/25 20:55:03;;;;;;;7.80;4.37;;;4.90;98.30;;;;;;4029653;29;20482;-79
2021/11/25 20:57:07;;;;;;;12.80;5.57;;;4.90;98.30;;;;;;4035639;29;20529;-80
2021/11/25 20:59:11;;;;;;;9.20;4.13;;;4.90;98.30;;;;;;4036637;29;20461;-79
2021/11/25 21:01:20;;;;;;;7.87;4.57;;;4.90;98.30;;;;;;4036977;29;20873;-80
2021/11/25 21:03:27;;;;;;;8.63;3.93;;;4.90;98.30;;;;;;4035467;29;20444;-79
2021/11/25 21:05:31;;;;;;;7.80;4.10;;;4.90;98.30;;;;;;4037893;29;20441;-80
2021/11/25 21:07:34;;;;;;;9.07;3.60;;;4.90;98.30;;;;;;4033601;29;20573;-79
2021/11/25 21:09:38;;;;;;;14.67;5.07;;;4.90;98.30;;;;;;4033349;29;20485;-79
2021/11/25 21:11:43;;;;;;;8.07;4.00;;;4.90;98.30;;;;;;4038102;29;20560;-80
2021/11/25 21:13:46;;;;;;;9.73;4.40;;;4.90;98.30;;;;;;4037666;29;20527;-79
2021/11/25 21:15:51;;;;;;;10.90;4.00;;;4.90;98.30;;;;;;4033792;29;20832;-79
2021/11/25 21:17:56;;;;;;;7.33;4.40;;;4.90;98.30;;;;;;4035755;29;20491;-79
2021/11/25 21:20:01;;;;;;;7.90;4.20;;;4.90;98.30;;;;;;4034551;29;20478;-79
2021/11/25 21:22:04;;;;;;;6.40;4.20;;;4.90;98.30;;;;;;4038464;29;20494;-79
2021/11/25 21:24:08;;;;;;;8.40;4.37;;;4.90;98.30;;;;;;4037702;29;20975;-79
2021/11/25 21:26:11;;;;;;;14.03;5.67;;;4.90;98.30;;;;;;4035028;29;20993;-79
2021/11/25 21:28:15;;;;;;;6.67;4.50;;;4.90;98.30;;;;;;4034267;29;21048;-79
2021/11/25 21:30:20;;;;;;;16.33;4.97;;;4.90;98.30;;;;;;4037963;29;20482;-79
2021/11/25 21:32:24;;;;;;;8.60;4.47;;;4.90;98.30;;;;;;4038123;29;20627;-79
2021/11/25 21:34:34;;;;;;;11.47;5.37;;;4.80;98.30;;;;;;4033647;29;20477;-79
2021/11/25 21:36:40;;;;;;;8.47;4.53;;;4.80;98.30;;;;;;4038637;29;20841;-79
2021/11/25 21:38:43;;;;;;;11.97;4.87;;;4.80;98.30;;;;;;4045302;29;21069;-79
2021/11/25 21:40:47;;;;;;;11.80;5.20;;;4.80;98.30;;;;;;4036855;29;20456;-79
2021/11/25 21:42:53;;;;;;;12.00;4.70;;;4.70;98.30;;;;;;4035619;29;20469;-80
2021/11/25 21:44:59;;;;;;;12.27;5.37;;;4.70;98.30;;;;;;4035356;29;20477;-80
2021/11/25 21:47:08;;;;;;;9.90;5.87;;;4.70;98.30;;;;;;4041040;29;20489;-80
2021/11/25 21:49:21;;;;;;;9.83;4.60;;;4.60;98.30;;;;;;4038765;29;20468;-79
2021/11/25 21:51:36;;;;;;;10.13;4.63;;;4.60;98.30;;;;;;4040999;29;20468;-79
2021/11/25 21:53:40;;;;;;;9.17;4.70;;;4.60;98.30;;;;;;4035740;29;20455;-80
2021/11/25 21:55:44;;;;;;;8.13;5.13;;;4.60;98.30;;;;;;4049251;29;20464;-79
2021/11/25 21:57:50;;;;;;;7.70;4.77;;;4.60;98.30;;;;;;4039699;29;20894;-80
2021/11/25 22:00:00;;;;;;;9.17;5.27;;;4.60;98.30;;;;;;4040465;29;20469;-80
2021/11/25 22:02:04;;;;;;;9.27;4.70;;;4.60;98.30;;;;;;4038467;29;20452;-79
2021/11/25 22:04:10;;;;;;;9.40;4.50;;;4.60;98.30;;;;;;4041521;29;20908;-79
2021/11/25 22:06:15;;;;;;;11.70;5.47;;;4.60;98.30;;;;;;4041382;29;20509;-80
2021/11/25 22:08:26;;;;;;;10.43;5.07;;;4.50;98.30;;;;;;4041238;29;20532;-80
2021/11/25 22:10:32;;;;;;;11.87;5.03;;;4.50;98.30;;;;;;4034442;29;20452;-80
2021/11/25 22:12:41;;;;;;;14.60;5.70;;;4.50;98.30;;;;;;4041463;29;20465;-80
2021/11/25 22:14:50;;;;;;;9.07;5.70;;;4.50;98.30;;;;;;4041495;29;20480;-80
2021/11/25 22:16:57;;;;;;;12.17;4.90;;;4.50;98.30;;;;;;4042483;29;20572;-80
2021/11/25 22:19:03;;;;;;;11.63;6.07;;;4.50;98.30;;;;;;4042251;29;21012;-78
2021/11/25 22:21:18;;;;;;;9.97;5.87;;;4.40;98.30;;;;;;4040637;29;20516;-80
2021/11/25 22:25:47;;;;;;;11.23;5.43;;;4.40;98.30;;;;;;4039229;29;20501;-80
2021/11/25 22:27:50;;;;;;;11.53;5.30;;;4.40;98.30;;;;;;4030815;29;20553;-80
2021/11/25 22:29:56;;;;;;;15.40;6.20;;;4.40;98.30;;;;;;4037007;29;20448;-81
2021/11/25 22:31:59;;;;;;;14.30;5.47;;;4.40;98.30;;;;;;4049085;29;20452;-81
2021/11/25 22:34:03;;;;;;;14.57;6.20;;;4.40;98.30;;;;;;4041023;29;20485;-80
2021/11/25 22:36:09;;;;;;;10.23;5.50;;;4.40;98.30;;;;;;4039847;29;20561;-80
2021/11/25 22:38:12;;;;;;;10.30;5.63;;;4.40;98.30;;;;;;4034788;29;20893;-80
2021/11/25 22:40:20;;;;;;;11.50;5.37;;;4.50;98.30;;;;;;4039250;29;20456;-80
2021/11/25 22:42:23;;;;;;;14.47;5.20;;;4.40;98.30;;;;;;4037980;29;20510;-80
2021/11/25 22:44:26;;;;;;;7.87;4.30;;;4.50;98.30;;;;;;4037668;29;20835;-80
2021/11/25 22:46:29;;;;;;;8.80;4.60;;;4.50;98.30;;;;;;4041010;29;20481;-80
